Time;durP1;ratioP1;P1;durP2;ratioP2;P2;SDS_P1;SDS_P2;PMS_P1;PMS_P2;Temp;Humidity;BMP_temperature;BMP_pressure;BME280_temperature;BME280_humidity;BME280_pressure;Samples;Min_cycle;Max_cycle;Signal;HPM_P1;HPM_P2
2022/08/17 00:01:28;;;;;;;32.60;27.63;;;;;;;20.25;83.38;101092.16;5054280;28;20052;-83
2022/08/17 00:04:02;;;;;;;32.50;27.38;;;;;;;20.26;82.94;101104.44;5069229;28;20049;-84
2022/08/17 00:06:36;;;;;;;30.92;27.33;;;;;;;20.24;82.92;101092.66;5070921;28;20134;-83
2022/08/17 00:09:04;;;;;;;32.28;28.77;;;;;;;20.24;82.38;101096.09;5074184;28;20052;-82
2022/08/17 00:11:33;;;;;;;36.08;28.75;;;;;;;20.23;82.93;101077.66;5072734;28;20053;-83
2022/08/17 00:14:20;;;;;;;30.65;27.55;;;;;;;20.21;82.32;101074.72;5072694;28;20383;-82
2022/08/17 00:16:52;;;;;;;32.42;28.13;;;;;;;20.18;82.84;101081.88;5065284;28;20049;-82
2022/08/17 00:19:24;;;;;;;31.90;28.42;;;;;;;20.15;82.95;101079.41;5088988;28;20049;-82
2022/08/17 00:21:55;;;;;;;33.10;28.77;;;;;;;20.14;82.89;101069.84;5072669;28;20059;-82
2022/08/17 00:24:41;;;;;;;32.25;28.80;;;;;;;20.11;83.60;101066.16;5074319;28;20037;-82
2022/08/17 00:27:08;;;;;;;31.25;27.73;;;;;;;20.08;83.32;101074.53;5072618;28;20057;-82
2022/08/17 00:29:35;;;;;;;31.40;28.20;;;;;;;20.06;83.21;101066.91;5072599;28;20037;-82
2022/08/17 00:32:02;;;;;;;30.33;26.80;;;;;;;20.02;83.80;101071.84;5072508;28;20549;-82
2022/08/17 00:34:48;;;;;;;31.90;28.45;;;;;;;19.99;83.14;101064.75;5058806;28;20115;-81
2022/08/17 00:37:15;;;;;;;29.75;26.25;;;;;;;19.95;84.03;101065.03;5056014;28;20127;-83
2022/08/17 00:39:43;;;;;;;32.88;27.45;;;;;;;19.92;83.83;101065.28;5075236;28;20040;-81
2022/08/17 00:42:15;;;;;;;31.52;26.02;;;;;;;19.92;83.46;101060.59;5090935;28;20421;-82
2022/08/17 00:44:42;;;;;;;29.67;26.65;;;;;;;19.92;83.24;101065.28;5090320;28;20048;-82
2022/08/17 00:47:08;;;;;;;29.25;26.15;;;;;;;19.93;83.34;101058.63;5092590;28;20091;-82
2022/08/17 00:49:35;;;;;;;31.55;26.85;;;;;;;19.94;83.41;101070.91;5075156;28;20048;-82
2022/08/17 00:52:07;;;;;;;29.05;26.27;;;;;;;19.95;83.50;101061.56;5091430;28;20041;-82
2022/08/17 00:54:40;;;;;;;29.95;25.15;;;;;;;19.96;83.28;101060.34;5092455;28;20057;-82
2022/08/17 00:57:18;;;;;;;30.40;26.45;;;;;;;19.95;83.34;101051.50;5075731;28;20057;-82
2022/08/17 00:59:51;;;;;;;28.52;25.60;;;;;;;19.96;83.02;101050.28;5075525;28;20051;-82
2022/08/17 01:02:30;;;;;;;29.25;26.25;;;;;;;19.97;83.27;101051.00;5092689;28;20048;-82
2022/08/17 01:05:08;;;;;;;28.27;25.48;;;;;;;19.95;83.18;101038.00;5076416;28;20155;-82
2022/08/17 01:07:35;;;;;;;30.00;25.38;;;;;;;19.94;82.96;101036.53;5075689;28;20053;-82
2022/08/17 01:10:08;;;;;;;27.50;24.77;;;;;;;19.93;82.61;101037.75;5075510;28;20563;-82
2022/08/17 01:12:55;;;;;;;27.73;24.92;;;;;;;19.92;82.27;101024.75;5092223;28;20110;-81
2022/08/17 01:15:22;;;;;;;29.13;24.48;;;;;;;19.89;82.58;101033.84;5091541;28;20494;-82
2022/08/17 01:17:49;;;;;;;26.73;24.00;;;;;;;19.85;82.23;101028.69;5074419;28;20087;-82
2022/08/17 01:20:15;;;;;;;25.17;22.50;;;;;;;19.84;81.88;101024.53;5092465;28;20048;-82
2022/08/17 01:22:42;;;;;;;29.90;23.20;;;;;;;19.86;81.83;101034.84;5075171;28;20118;-82
2022/08/17 01:25:11;;;;;;;24.83;22.27;;;;;;;19.83;80.92;101023.06;5075227;28;20052;-82
2022/08/17 01:27:40;;;;;;;25.02;22.48;;;;;;;19.82;80.74;101023.56;5091316;28;20052;-82
2022/08/17 01:30:10;;;;;;;24.42;21.92;;;;;;;19.84;80.59;101029.19;5075078;28;20048;-82
2022/08/17 01:32:57;;;;;;;27.52;20.45;;;;;;;19.85;79.84;101027.97;5077654;28;20052;-82
2022/08/17 01:35:23;;;;;;;24.10;20.58;;;;;;;19.87;80.10;101034.34;5075108;28;20650;-82
2022/08/17 01:37:50;;;;;;;29.10;21.38;;;;;;;19.89;79.58;101029.19;5074901;28;20052;-82
2022/08/17 01:40:27;;;;;;;23.52;20.90;;;;;;;19.94;79.40;101024.97;5092312;28;20078;-82
2022/08/17 01:42:59;;;;;;;25.45;21.33;;;;;;;19.95;79.45;101023.75;5074570;28;20040;-82
2022/08/17 01:45:32;;;;;;;22.52;20.15;;;;;;;19.96;79.56;101022.53;5074795;28;20044;-82
2022/08/17 01:47:59;;;;;;;23.15;20.13;;;;;;;19.96;79.88;101020.56;5074943;28;20497;-82
2022/08/17 01:50:30;;;;;;;26.30;21.67;;;;;;;19.95;80.66;101021.06;5091627;28;20045;-82
2022/08/17 01:53:00;;;;;;;23.35;21.13;;;;;;;19.94;80.57;101020.31;5074824;28;20052;-82
2022/08/17 01:55:33;;;;;;;25.93;22.10;;;;;;;19.96;80.72;101027.94;5074463;28;20503;-82
2022/08/17 01:58:00;;;;;;;24.42;20.38;;;;;;;19.95;82.02;101029.91;5091022;28;20858;-82
2022/08/17 02:00:28;;;;;;;24.02;21.55;;;;;;;19.96;82.20;101025.97;5074688;28;20563;-82
2022/08/17 02:03:16;;;;;;;23.60;21.15;;;;;;;19.97;83.19;101021.28;5077543;28;20094;-82
2022/08/17 02:05:43;;;;;;;25.55;22.98;;;;;;;19.97;84.18;101024.00;5090990;28;20052;-81
2022/08/17 02:08:10;;;;;;;27.23;21.75;;;;;;;19.99;84.20;101022.22;5091153;28;20052;-81
2022/08/17 02:10:47;;;;;;;26.33;23.45;;;;;;;20.05;84.99;101027.63;5091845;28;20059;-81
2022/08/17 02:13:14;;;;;;;25.45;22.45;;;;;;;20.07;84.90;101035.97;5074324;28;20049;-81
2022/08/17 02:15:41;;;;;;;32.28;22.80;;;;;;;20.11;86.24;101047.25;5091433;28;20040;-82
2022/08/17 02:18:09;;;;;;;24.88;21.05;;;;;;;20.06;85.75;101048.00;5074474;28;20538;-82
2022/08/17 02:20:37;;;;;;;29.63;21.00;;;;;;;19.99;84.94;101053.94;5091210;28;20053;-81
2022/08/17 02:23:10;;;;;;;22.27;20.05;;;;;;;19.90;84.11;101065.78;5074994;28;20060;-81
2022/08/17 02:25:40;;;;;;;23.23;19.60;;;;;;;19.78;84.04;101064.31;5073776;28;20531;-81
2022/08/17 02:28:07;;;;;;;22.20;19.80;;;;;;;19.71;83.75;101069.50;5090958;28;20056;-82
2022/08/17 02:30:34;;;;;;;20.95;18.90;;;;;;;19.66;84.12;101070.97;5090797;28;20552;-81
2022/08/17 02:33:21;;;;;;;22.60;19.20;;;;;;;19.65;84.11;101078.34;5091046;28;20406;-81
2022/08/17 02:35:47;;;;;;;21.30;19.20;;;;;;;19.70;84.12;101078.81;5074400;28;20041;-82
2022/08/17 02:38:15;;;;;;;22.00;19.50;;;;;;;19.73;83.60;101081.28;5074188;28;20053;-82
2022/08/17 02:40:42;;;;;;;21.30;18.23;;;;;;;19.75;83.30;101078.81;5073620;28;20416;-83
2022/08/17 02:43:12;;;;;;;22.15;19.10;;;;;;;19.78;83.15;101093.31;5074673;28;20064;-82
2022/08/17 02:45:39;;;;;;;20.92;18.80;;;;;;;19.77;83.35;101084.47;5074006;28;20052;-82
2022/08/17 02:48:06;;;;;;;20.92;18.50;;;;;;;19.78;83.59;101077.09;5090817;28;20061;-82
2022/08/17 02:50:35;;;;;;;20.42;18.33;;;;;;;19.78;83.52;101080.53;5091056;28;20041;-82
2022/08/17 02:53:02;;;;;;;20.25;18.27;;;;;;;19.77;83.82;101062.84;5073985;28;20052;-82
2022/08/17 02:55:34;;;;;;;20.45;18.25;;;;;;;19.77;83.68;101067.53;5073761;28;20555;-82
2022/08/17 02:58:02;;;;;;;25.83;18.65;;;;;;;19.79;83.77;101067.75;5090731;28;20049;-82
2022/08/17 03:00:36;;;;;;;22.08;19.77;;;;;;;19.79;83.53;101060.38;5090649;28;20491;-82
2022/08/17 03:03:07;;;;;;;22.65;20.17;;;;;;;19.79;83.71;101057.69;5090647;28;20044;-82
2022/08/17 03:05:35;;;;;;;;;;;;;;;19.81;82.55;101065.31;5090761;28;20053;-83
2022/08/17 03:08:02;;;;;;;21.63;19.23;;;;;;;19.79;83.80;101057.69;5073794;28;19932;-83
2022/08/17 03:10:29;;;;;;;21.70;19.60;;;;;;;19.80;83.78;101045.66;5090432;28;20067;-83
2022/08/17 03:12:56;;;;;;;20.95;18.98;;;;;;;19.80;84.01;101040.25;5073618;28;20044;-83
2022/08/17 03:15:26;;;;;;;24.02;20.13;;;;;;;19.81;83.93;101046.38;5090681;28;20045;-83
2022/08/17 03:17:53;;;;;;;25.73;20.00;;;;;;;19.81;83.77;101039.03;5073703;28;20052;-82
2022/08/17 03:20:20;;;;;;;22.15;19.90;;;;;;;19.82;84.05;101031.66;5090656;28;20057;-82
2022/08/17 03:22:50;;;;;;;21.85;19.58;;;;;;;19.83;83.78;101030.44;5073885;28;20048;-83
2022/08/17 03:25:32;;;;;;;20.75;18.38;;;;;;;19.84;83.29;101026.50;5090214;28;20048;-82
2022/08/17 03:27:59;;;;;;;21.73;18.77;;;;;;;19.86;83.27;101026.72;5090336;28;20484;-82
2022/08/17 03:30:27;;;;;;;21.85;18.65;;;;;;;19.89;82.64;101037.28;5090662;28;20809;-82
2022/08/17 03:32:56;;;;;;;21.23;17.00;;;;;;;19.93;82.30;101034.31;5090538;28;20051;-82
2022/08/17 03:35:26;;;;;;;21.63;16.77;;;;;;;19.95;81.82;101039.97;5073252;28;20064;-82
2022/08/17 03:37:53;;;;;;;18.65;16.52;;;;;;;19.97;81.78;101040.19;5072976;28;20096;-82
2022/08/17 03:40:27;;;;;;;17.70;15.98;;;;;;;19.97;81.92;101032.09;5073975;28;20063;-82
2022/08/17 03:43:14;;;;;;;18.75;16.63;;;;;;;19.97;81.82;101034.81;5079942;28;20052;-82
2022/08/17 03:57:01;;;;;;;17.48;15.07;;;;;;;19.87;83.69;101079.53;5093987;28;20495;-82
2022/08/17 03:59:28;;;;;;;17.83;15.95;;;;;;;19.81;84.16;101081.50;5093535;28;20049;-81
2022/08/17 04:01:57;;;;;;;16.05;14.38;;;;;;;19.77;84.10;101078.31;5093690;28;20576;-82
2022/08/17 04:04:24;;;;;;;15.75;14.30;;;;;;;19.77;82.65;101072.91;5092953;28;20052;-82
2022/08/17 04:06:53;;;;;;;15.75;14.15;;;;;;;19.82;82.21;101080.28;5094696;28;20044;-83
2022/08/17 04:09:19;;;;;;;15.05;13.68;;;;;;;19.83;82.04;101074.38;5077962;28;20063;-83
2022/08/17 04:11:46;;;;;;;15.05;13.65;;;;;;;19.82;82.08;101085.69;5094414;28;20053;-82
2022/08/17 04:14:13;;;;;;;14.35;13.10;;;;;;;19.80;82.59;101075.38;5076610;28;20544;-83
2022/08/17 04:16:40;;;;;;;16.55;14.55;;;;;;;19.77;82.82;101081.75;5076627;28;20172;-82
2022/08/17 04:19:06;;;;;;;13.70;12.50;;;;;;;19.75;83.04;101086.19;5093012;28;20044;-81
2022/08/17 04:21:34;;;;;;;15.77;14.13;;;;;;;19.74;82.84;101082.75;5092585;28;20044;-82
2022/08/17 04:24:01;;;;;;;14.55;13.02;;;;;;;19.74;82.85;101084.72;5093280;28;20040;-82
2022/08/17 04:26:28;;;;;;;15.10;13.60;;;;;;;19.73;82.94;101083.25;5092888;28;20094;-81
2022/08/17 04:29:15;;;;;;;15.50;13.70;;;;;;;19.74;82.99;101090.13;5079356;28;20048;-82
2022/08/17 04:31:42;;;;;;;15.90;14.43;;;;;;;19.72;83.46;101087.91;5076194;28;20504;-82
2022/08/17 04:34:10;;;;;;;16.20;14.57;;;;;;;19.69;83.70;101088.88;5093158;27;20953;-82
2022/08/17 04:36:37;;;;;;;16.25;14.60;;;;;;;19.66;83.90;101087.19;5075569;28;20044;-83
2022/08/17 04:39:04;;;;;;;17.17;15.48;;;;;;;19.64;84.17;101084.22;5092602;28;20053;-83
2022/08/17 04:44:15;;;;;;;20.85;18.67;;;;;;;19.56;85.56;101086.72;5092946;28;20048;-81
2022/08/17 04:47:02;;;;;;;19.83;17.85;;;;;;;19.55;86.33;101087.94;5094042;28;20500;-82
2022/08/17 04:49:28;;;;;;;21.58;19.25;;;;;;;19.54;86.89;101085.75;5075925;28;20056;-82
2022/08/17 04:51:55;;;;;;;25.35;19.88;;;;;;;19.49;88.04;101084.50;5092125;28;20056;-81
2022/08/17 04:54:29;;;;;;;22.45;20.15;;;;;;;19.46;88.67;101071.97;5076999;28;20045;-81
2022/08/17 04:56:56;;;;;;;24.08;21.35;;;;;;;19.46;89.18;101084.75;5092521;28;20485;-82
2022/08/17 04:59:22;;;;;;;22.85;20.52;;;;;;;19.44;89.24;101082.53;5092414;28;20052;-84
2022/08/17 05:01:50;;;;;;;23.88;21.45;;;;;;;19.44;89.57;101073.69;5093139;28;20056;-82
2022/08/17 05:04:23;;;;;;;24.48;21.55;;;;;;;19.45;89.88;101078.59;5092496;28;20049;-83
2022/08/17 05:07:00;;;;;;;22.42;20.02;;;;;;;19.45;89.83;101075.16;5076715;28;20056;-83
2022/08/17 05:09:26;;;;;;;27.88;20.73;;;;;;;19.47;89.85;101080.81;5075318;28;20055;-83
2022/08/17 05:11:53;;;;;;;23.38;19.15;;;;;;;19.48;90.36;101082.28;5076066;28;20044;-83
2022/08/17 05:14:21;;;;;;;21.73;18.30;;;;;;;19.47;90.57;101076.16;5092468;28;20056;-83
2022/08/17 05:16:58;;;;;;;20.08;17.98;;;;;;;19.48;90.40;101077.63;5092516;28;20052;-84
2022/08/17 05:19:26;;;;;;;20.42;16.75;;;;;;;19.51;90.55;101082.06;5092794;28;20871;-82
2022/08/17 05:21:53;;;;;;;20.08;16.85;;;;;;;19.52;90.42;101082.81;5091805;28;20045;-82
2022/08/17 05:24:19;;;;;;;17.52;15.77;;;;;;;19.52;90.60;101072.00;5075783;28;20044;-83
2022/08/17 05:27:06;;;;;;;16.48;14.88;;;;;;;19.52;90.30;101080.09;5078171;28;20550;-86
2022/08/17 05:29:33;;;;;;;15.55;14.05;;;;;;;19.51;89.49;101079.38;5092177;28;20052;-83
2022/08/17 05:32:11;;;;;;;15.38;13.70;;;;;;;19.53;88.91;101081.56;5075744;28;20139;-83
2022/08/17 05:34:59;;;;;;;13.90;12.60;;;;;;;19.52;88.86;101072.72;5077619;28;20037;-83
2022/08/17 05:37:26;;;;;;;13.30;12.02;;;;;;;19.52;89.11;101067.34;5091751;28;20570;-82
2022/08/17 05:39:52;;;;;;;12.52;11.32;;;;;;;19.52;88.63;101070.03;5091785;28;20063;-83
2022/08/17 05:42:20;;;;;;;12.88;11.55;;;;;;;19.51;88.42;101082.06;5092155;28;20044;-82
2022/08/17 05:44:46;;;;;;;11.75;10.45;;;;;;;19.51;87.78;101082.06;5075274;28;20086;-74
2022/08/17 05:47:13;;;;;;;18.08;10.00;;;;;;;19.51;87.86;101079.38;5093138;28;20095;-75
2022/08/17 05:49:39;;;;;;;10.68;9.52;;;;;;;19.50;87.61;101069.03;5092578;28;20043;-76
2022/08/17 05:52:22;;;;;;;10.80;9.35;;;;;;;19.49;88.10;101062.16;5093084;28;20044;-77
2022/08/17 05:55:10;;;;;;;9.68;8.70;;;;;;;19.44;88.41;101066.34;5091887;28;20114;-79
2022/08/17 05:58:16;;;;;;;9.02;8.13;;;;;;;19.40;88.40;101063.16;5091379;28;20044;-80
2022/08/17 06:01:12;;;;;;;8.40;7.60;;;;;;;19.38;87.84;101070.25;5091462;28;20056;-78
2022/08/17 06:03:57;;;;;;;9.65;7.50;;;;;;;19.38;87.21;101057.50;5091993;28;20476;-78
2022/08/17 06:06:33;;;;;;;7.65;6.90;;;;;;;19.41;87.34;101055.78;5091604;27;20477;-79
2022/08/17 06:09:30;;;;;;;7.00;6.47;;;;;;;19.46;86.73;101050.38;5092934;28;20047;-79
2022/08/17 06:12:20;;;;;;;6.95;6.38;;;;;;;19.50;86.67;101047.44;5092896;28;20044;-77
2022/08/17 06:15:23;;;;;;;9.13;6.30;;;;;;;19.53;85.96;101066.09;5093163;28;20045;-76
2022/08/17 06:17:58;;;;;;;10.10;6.75;;;;;;;19.55;85.92;101068.31;5090751;28;20055;-76
2022/08/17 06:20:31;;;;;;;7.50;6.43;;;;;;;19.59;85.81;101066.81;5092716;28;20044;-76
2022/08/17 06:23:09;;;;;;;7.20;6.50;;;;;;;19.63;85.92;101071.97;5092723;28;20098;-77
2022/08/17 06:25:44;;;;;;;7.75;7.13;;;;;;;19.71;85.90;101081.03;5091168;28;20114;-76
2022/08/17 06:28:15;;;;;;;10.82;7.28;;;;;;;19.73;85.92;101081.28;5091641;28;20230;-76
2022/08/17 06:30:48;;;;;;;8.32;7.57;;;;;;;19.77;85.98;101081.03;5092370;28;20041;-77
2022/08/17 06:33:34;;;;;;;8.70;7.97;;;;;;;19.82;86.12;101091.09;5075459;28;20138;-77
2022/08/17 06:36:25;;;;;;;8.75;8.05;;;;;;;20.05;85.93;101099.84;5074318;28;20106;-76
2022/08/17 06:39:02;;;;;;;8.70;8.00;;;;;;;20.20;85.54;101103.00;5090996;28;20052;-76
2022/08/17 06:41:57;;;;;;;11.20;8.52;;;;;;;20.27;85.33;101114.03;5090832;28;20053;-75
2022/08/17 06:44:39;;;;;;;9.57;8.70;;;;;;;20.25;85.90;101116.50;5074385;28;20049;-75
2022/08/17 06:47:19;;;;;;;10.10;9.25;;;;;;;20.24;86.55;101120.44;5092352;28;20122;-78
2022/08/17 06:50:13;;;;;;;12.38;9.52;;;;;;;20.23;86.46;101118.97;5092530;28;20483;-76
2022/08/17 06:53:11;;;;;;;11.45;9.68;;;;;;;20.25;86.17;101118.47;5074362;28;20523;-78
2022/08/17 06:55:50;;;;;;;11.10;9.90;;;;;;;20.26;86.17;101119.94;5091204;28;20098;-76
2022/08/17 06:58:21;;;;;;;10.75;9.75;;;;;;;20.31;86.44;101111.06;5092435;28;20095;-76
2022/08/17 07:00:50;;;;;;;11.48;9.30;;;;;;;20.40;86.35;101112.75;5091016;28;20075;-77
2022/08/17 07:03:36;;;;;;;11.45;10.45;;;;;;;20.43;86.26;101114.47;5090175;28;20078;-77
2022/08/17 07:06:21;;;;;;;11.38;10.45;;;;;;;20.42;86.18;101113.00;5090149;28;20538;-77
2022/08/17 07:08:57;;;;;;;12.60;11.40;;;;;;;20.41;86.18;101117.66;5073894;28;20045;-75
2022/08/17 07:11:39;;;;;;;12.07;10.88;;;;;;;20.43;86.17;101106.34;5091864;28;20159;-75
2022/08/17 07:14:30;;;;;;;12.75;11.40;;;;;;;20.39;85.77;101109.34;5090990;28;20136;-76
2022/08/17 07:17:01;;;;;;;12.05;10.82;;;;;;;20.38;86.05;101113.28;5093367;28;20273;-75
2022/08/17 07:19:31;;;;;;;13.55;12.13;;;;;;;20.40;86.35;101120.88;5095486;28;20044;-76
2022/08/17 07:22:20;;;;;;;12.43;11.23;;;;;;;20.41;86.12;101125.78;5095537;28;20481;-76
2022/08/17 07:25:04;;;;;;;12.65;11.38;;;;;;;20.40;86.31;101129.72;5095860;28;20105;-75
2022/08/17 07:27:39;;;;;;;13.77;11.90;;;;;;;20.39;85.96;101117.47;5095599;28;20049;-74
2022/08/17 07:30:15;;;;;;;16.65;13.00;;;;;;;20.36;86.34;101128.50;5094635;28;20045;-77
2022/08/17 07:32:52;;;;;;;13.75;12.45;;;;;;;20.32;86.21;101126.06;5095595;28;20045;-75
2022/08/17 07:35:27;;;;;;;13.45;12.10;;;;;;;20.29;86.62;101127.03;5064395;28;20107;-74
2022/08/17 07:38:27;;;;;;;13.90;12.35;;;;;;;20.27;86.54;101132.22;5073106;28;20049;-75
2022/08/17 07:40:56;;;;;;;14.00;12.70;;;;;;;20.24;87.32;101127.81;5073475;28;20052;-74
2022/08/17 07:43:25;;;;;;;13.30;12.10;;;;;;;20.24;87.20;101120.44;5074737;28;20047;-84
2022/08/17 07:49:14;;;;;;;13.32;12.13;;;;;;;20.29;87.49;101137.84;5074672;28;20468;-76
2022/08/17 07:51:46;;;;;;;14.10;12.80;;;;;;;20.31;87.15;101133.44;5074519;28;20044;-76
2022/08/17 07:54:18;;;;;;;22.48;12.90;;;;;;;20.35;86.92;101132.44;5072872;28;20103;-76
2022/08/17 07:56:48;;;;;;;13.80;12.45;;;;;;;20.34;87.87;101137.09;5073491;28;20049;-76
2022/08/17 07:59:23;;;;;;;14.98;13.10;;;;;;;20.35;87.20;101137.84;5073373;28;20056;-76
2022/08/17 08:01:53;;;;;;;15.10;13.48;;;;;;;20.36;86.17;101140.06;5074566;28;20084;-76
2022/08/17 08:04:28;;;;;;;13.95;12.65;;;;;;;20.40;86.27;101145.19;5073895;28;20049;-76
2022/08/17 08:07:14;;;;;;;15.05;13.13;;;;;;;20.41;85.95;101147.41;5074397;28;20098;-76
2022/08/17 08:10:03;;;;;;;14.93;13.35;;;;;;;20.42;85.87;101146.16;5073141;28;20045;-76
2022/08/17 08:12:38;;;;;;;16.40;13.18;;;;;;;20.46;85.88;101151.31;5072800;28;20060;-75
2022/08/17 08:15:18;;;;;;;15.48;13.15;;;;;;;20.48;85.85;101149.59;5072568;28;20072;-78
2022/08/17 08:17:48;;;;;;;14.93;13.52;;;;;;;20.53;85.75;101159.66;5056098;28;20056;-80
2022/08/17 08:20:15;;;;;;;15.55;13.48;;;;;;;20.61;85.77;101157.16;5072812;28;20607;-82
2022/08/17 08:23:24;;;;;;;17.40;13.30;;;;;;;20.68;84.06;101158.63;5073368;28;20087;-80
2022/08/17 08:26:08;;;;;;;14.35;12.85;;;;;;;20.79;83.38;101166.69;5074212;28;20041;-80
2022/08/17 08:29:07;;;;;;;13.48;12.18;;;;;;;20.87;81.73;101168.34;5073392;28;20059;-79
2022/08/17 08:31:43;;;;;;;12.75;11.57;;;;;;;21.00;79.72;101173.19;5072671;28;20061;-80
2022/08/17 08:34:18;;;;;;;12.25;11.07;;;;;;;21.03;76.03;101176.84;5072573;28;20060;-80
2022/08/17 08:37:05;;;;;;;13.65;9.77;;;;;;;21.07;72.92;101182.75;5058820;28;20103;-79
2022/08/17 08:40:14;;;;;;;11.18;8.82;;;;;;;21.07;72.12;101185.44;5073308;28;20049;-76
2022/08/17 08:42:57;;;;;;;9.48;8.57;;;;;;;21.08;72.15;101197.75;5072476;28;20049;-80
2022/08/17 08:46:05;;;;;;;9.43;8.50;;;;;;;21.22;72.27;101204.81;5072727;28;20111;-74
2022/08/17 08:48:50;;;;;;;8.95;8.27;;;;;;;21.35;71.03;101207.69;5072930;28;20057;-84
2022/08/17 08:51:32;;;;;;;8.88;8.05;;;;;;;21.45;70.18;101206.13;5074029;28;20049;-80
2022/08/17 08:54:16;;;;;;;8.60;8.00;;;;;;;21.49;69.58;101206.59;5072299;28;20098;-80
2022/08/17 08:56:56;;;;;;;8.02;7.43;;;;;;;21.43;69.25;101195.06;5056621;28;20514;-80
2022/08/17 09:00:18;;;;;;;8.55;7.85;;;;;;;21.43;68.93;101178.81;5058086;28;20045;-80
2022/08/17 09:03:16;;;;;;;8.68;7.97;;;;;;;21.38;68.98;101182.31;5055500;28;20084;-79
2022/08/17 09:05:55;;;;;;;10.63;8.40;;;;;;;21.31;68.86;101177.44;5054747;28;20496;-79
2022/08/17 09:08:31;;;;;;;8.38;7.68;;;;;;;21.36;69.24;101179.34;5071835;28;20055;-79
2022/08/17 09:11:24;;;;;;;7.93;7.32;;;;;;;21.40;69.77;101176.38;5071935;28;20064;-79
2022/08/17 09:13:53;;;;;;;9.27;8.10;;;;;;;21.33;68.03;101185.03;5071440;28;20049;-81
2022/08/17 09:16:29;;;;;;;8.30;7.60;;;;;;;21.24;67.65;101192.25;5071683;28;20500;-79
2022/08/17 09:19:03;;;;;;;8.23;7.53;;;;;;;21.21;67.83;101204.06;5055042;28;20049;-79
2022/08/17 09:21:48;;;;;;;11.63;7.30;;;;;;;21.18;67.36;101228.69;5054922;28;20049;-79
2022/08/17 09:24:42;;;;;;;11.70;7.20;;;;;;;21.13;68.12;101275.47;5055523;28;20053;-81
2022/08/17 09:27:17;;;;;;;8.90;8.20;;;;;;;21.00;67.79;101313.19;5071442;28;20051;-78
2022/08/17 09:30:06;;;;;;;9.07;8.30;;;;;;;20.89;69.18;101309.28;5073397;28;20045;-82
2022/08/17 09:32:38;;;;;;;9.52;8.70;;;;;;;20.83;69.32;101294.28;5071720;28;20059;-78
2022/08/17 09:35:14;;;;;;;10.30;9.35;;;;;;;20.75;69.11;101287.94;5073448;28;20083;-81
2022/08/17 09:38:01;;;;;;;10.40;9.40;;;;;;;20.62;71.85;101272.97;5071716;28;20053;-82
2022/08/17 09:40:42;;;;;;;16.88;10.68;;;;;;;20.42;76.61;101227.28;5073292;28;20041;-88
2022/08/17 09:43:26;;;;;;;19.67;11.23;;;;;;;20.21;77.35;101161.22;5073566;28;20053;-87
2022/08/17 09:46:01;;;;;;;12.07;10.77;;;;;;;19.86;79.22;101145.59;5073182;28;20099;-85
2022/08/17 09:48:34;;;;;;;16.00;11.45;;;;;;;19.63;79.91;101152.97;5072897;28;20045;-80
2022/08/17 09:51:23;;;;;;;16.52;10.88;;;;;;;19.47;80.54;101162.53;5073065;28;20168;-78
2022/08/17 09:53:50;;;;;;;12.20;10.88;;;;;;;19.41;80.89;101150.25;5071742;28;20548;-81
2022/08/17 09:56:41;;;;;;;12.27;11.18;;;;;;;19.36;80.13;101140.94;5072307;28;20048;-81
2022/08/17 09:59:43;;;;;;;11.45;10.45;;;;;;;19.37;81.92;101134.31;5071864;28;20056;-82
2022/08/17 10:02:44;;;;;;;11.52;10.57;;;;;;;19.72;82.10;101139.22;5072718;28;20114;-81
2022/08/17 10:05:21;;;;;;;11.48;10.57;;;;;;;19.93;81.33;101147.78;5053770;28;20057;-75
2022/08/17 10:08:40;;;;;;;11.30;10.30;;;;;;;20.24;79.76;101166.38;5072834;28;20049;-78
2022/08/17 10:14:28;;;;;;;11.73;10.52;;;;;;;20.47;80.13;101150.09;5052864;28;20528;-79
2022/08/17 10:17:27;;;;;;;16.02;11.77;;;;;;;20.59;79.47;101154.97;5052538;28;20556;-78
2022/08/17 10:20:14;;;;;;;12.15;10.95;;;;;;;20.58;77.25;101153.50;5034240;28;20049;-79
2022/08/17 10:28:43;;;;;;;10.80;9.90;;;;;;;20.63;74.57;101179.78;5050937;28;20045;-78
2022/08/17 10:31:15;;;;;;;10.75;9.85;;;;;;;20.73;75.29;101180.22;5050974;28;20057;-76
2022/08/17 10:34:22;;;;;;;10.93;9.87;;;;;;;20.80;74.14;101189.75;5052417;28;20553;-82
2022/08/17 10:37:13;;;;;;;9.98;8.98;;;;;;;20.90;75.02;101188.25;5050664;28;20056;-80
2022/08/17 10:39:50;;;;;;;11.38;10.20;;;;;;;21.00;72.08;101189.41;5033783;28;20544;-79
2022/08/17 10:42:36;;;;;;;12.02;10.98;;;;;;;21.08;72.52;101187.66;5034417;28;20053;-81
2022/08/17 10:45:05;;;;;;;11.90;10.77;;;;;;;21.14;71.66;101198.44;5049966;28;20053;-81
2022/08/17 10:48:11;;;;;;;13.57;11.32;;;;;;;21.14;71.45;101199.19;5033746;28;20049;-81
2022/08/17 10:50:48;;;;;;;12.38;11.07;;;;;;;21.11;71.97;101205.59;5063022;28;20517;-82
2022/08/17 10:53:30;;;;;;;12.25;11.07;;;;;;;21.18;72.40;101207.03;5050469;28;20053;-84
2022/08/17 10:56:11;;;;;;;14.68;12.30;;;;;;;21.24;72.31;101213.16;5037115;28;20053;-88
2022/08/17 10:58:58;;;;;;;13.55;12.15;;;;;;;21.27;71.43;101204.78;5035191;28;20053;-86
2022/08/17 11:01:28;;;;;;;13.25;11.88;;;;;;;21.33;71.59;101206.72;5034281;28;20046;-86
2022/08/17 11:04:20;;;;;;;18.70;12.50;;;;;;;21.35;72.02;101207.69;5050841;28;20049;-86
2022/08/17 11:07:11;;;;;;;12.85;11.57;;;;;;;21.43;71.80;101221.41;5034612;28;20073;-86
2022/08/17 11:10:08;;;;;;;14.13;12.60;;;;;;;21.48;71.30;101237.63;5051657;28;20048;-86
2022/08/17 11:13:20;;;;;;;13.63;12.30;;;;;;;21.47;70.75;101263.25;5051346;28;20095;-87
2022/08/17 11:16:01;;;;;;;13.32;11.98;;;;;;;21.41;72.41;101280.75;5034557;28;20048;-87
2022/08/17 11:18:54;;;;;;;14.85;12.70;;;;;;;21.34;73.43;101284.72;5056073;28;20049;-89
2022/08/17 11:21:40;;;;;;;14.05;12.65;;;;;;;21.34;73.74;101284.00;5034898;28;20054;-87
2022/08/17 11:24:34;;;;;;;14.88;12.98;;;;;;;21.31;75.64;101293.84;5051599;28;20165;-87
2022/08/17 11:27:08;;;;;;;15.45;13.85;;;;;;;21.23;75.52;101295.63;5050636;28;20057;-87
2022/08/17 11:29:52;;;;;;;15.40;13.80;;;;;;;21.19;75.26;101292.44;5052267;28;20045;-87
2022/08/17 11:32:41;;;;;;;14.20;12.80;;;;;;;21.09;76.54;101277.72;5035134;28;20049;-86
2022/08/17 11:35:19;;;;;;;15.93;13.15;;;;;;;21.01;76.05;101277.50;5050752;28;20052;-87
2022/08/17 11:38:11;;;;;;;17.85;14.15;;;;;;;20.98;77.35;101268.41;5051566;28;20041;-89
2022/08/17 11:41:03;;;;;;;19.45;14.70;;;;;;;20.95;77.88;101269.41;5050741;28;20053;-88
2022/08/17 11:44:02;;;;;;;17.88;14.05;;;;;;;20.86;79.70;101261.56;5034429;28;20050;-86
2022/08/17 11:52:46;;;;;;;19.15;15.52;;;;;;;20.76;81.40;101263.09;5050565;28;20115;-82
2022/08/17 11:55:32;;;;;;;17.58;15.10;;;;;;;20.75;80.87;101266.31;5032870;28;20465;-82
2022/08/17 11:58:27;;;;;;;16.90;15.10;;;;;;;20.73;80.94;101269.50;5033895;28;20394;-82
2022/08/17 12:01:02;;;;;;;18.98;15.70;;;;;;;20.71;81.97;101282.06;5049771;28;20057;-81
2022/08/17 12:03:31;;;;;;;19.40;17.45;;;;;;;20.52;83.95;101282.59;5051982;28;20049;-81
2022/08/17 12:06:05;;;;;;;20.42;17.35;;;;;;;20.54;84.52;101274.72;5053340;28;20061;-82
2022/08/17 12:08:40;;;;;;;20.08;17.52;;;;;;;20.47;85.15;101258.25;5052771;28;20042;-83
2022/08/17 12:11:10;;;;;;;21.80;18.33;;;;;;;20.44;84.51;101254.56;5052687;28;20052;-84
2022/08/17 12:13:45;;;;;;;21.58;18.48;;;;;;;20.42;85.26;101256.28;5052695;28;20053;-83
2022/08/17 12:16:17;;;;;;;20.38;18.10;;;;;;;20.40;85.62;101250.66;5053033;28;20045;-82
2022/08/17 12:19:01;;;;;;;22.10;19.77;;;;;;;20.39;85.60;101244.53;5052681;28;20051;-82
2022/08/17 12:21:41;;;;;;;24.60;19.25;;;;;;;20.43;86.58;101242.28;5035522;28;20064;-81
2022/08/17 12:24:34;;;;;;;26.08;20.02;;;;;;;20.51;86.33;101247.91;5052421;28;20450;-81
2022/08/17 12:27:03;;;;;;;24.85;19.60;;;;;;;20.54;86.10;101253.06;5053856;28;20045;-89
2022/08/17 12:29:31;;;;;;;22.35;19.98;;;;;;;20.56;86.04;101249.88;5036058;28;20100;-74